sensor_id;sensor_type;location;lat;lon;timestamp;temperature;humidity
13446;DHT22;6795;51.232;3.764;2023-08-21T00:01:44;16.50;99.90
13446;DHT22;6795;51.232;3.764;2023-08-21T00:04:57;16.50;99.90
13446;DHT22;6795;51.232;3.764;2023-08-21T00:08:35;16.50;99.90
13446;DHT22;6795;51.232;3.764;2023-08-21T00:11:51;16.40;99.90
13446;DHT22;6795;51.232;3.764;2023-08-21T00:19:09;16.30;99.90
13446;DHT22;6795;51.232;3.764;2023-08-21T00:22:05;16.20;99.90
13446;DHT22;6795;51.232;3.764;2023-08-21T00:25:20;16.10;99.90
13446;DHT22;6795;51.232;3.764;2023-08-21T00:28:38;16.00;99.90
13446;DHT22;6795;51.232;3.764;2023-08-21T00:32:10;15.90;99.90
13446;DHT22;6795;51.232;3.764;2023-08-21T00:35:54;16.00;99.90
13446;DHT22;6795;51.232;3.764;2023-08-21T00:39:04;16.00;99.90
13446;DHT22;6795;51.232;3.764;2023-08-21T00:42:14;16.00;99.90
13446;DHT22;6795;51.232;3.764;2023-08-21T00:45:31;16.30;99.90
13446;DHT22;6795;51.232;3.764;2023-08-21T00:53:43;16.60;99.90
13446;DHT22;6795;51.232;3.764;2023-08-21T00:56:32;16.80;99.90
13446;DHT22;6795;51.232;3.764;2023-08-21T01:00:11;16.80;99.90
13446;DHT22;6795;51.232;3.764;2023-08-21T01:03:02;16.80;99.90
13446;DHT22;6795;51.232;3.764;2023-08-21T01:06:05;16.90;99.90
13446;DHT22;6795;51.232;3.764;2023-08-21T01:13:32;17.10;99.90
13446;DHT22;6795;51.232;3.764;2023-08-21T01:17:08;17.10;99.90
13446;DHT22;6795;51.232;3.764;2023-08-21T01:20:22;17.20;99.90
13446;DHT22;6795;51.232;3.764;2023-08-21T01:23:44;17.20;99.90
13446;DHT22;6795;51.232;3.764;2023-08-21T01:27:35;17.10;99.90
13446;DHT22;6795;51.232;3.764;2023-08-21T01:30:48;17.10;99.90
13446;DHT22;6795;51.232;3.764;2023-08-21T01:34:30;17.00;99.90
13446;DHT22;6795;51.232;3.764;2023-08-21T01:37:42;17.00;99.90
13446;DHT22;6795;51.232;3.764;2023-08-21T01:41:31;16.90;99.90
13446;DHT22;6795;51.232;3.764;2023-08-21T01:45:27;17.00;99.90
13446;DHT22;6795;51.232;3.764;2023-08-21T01:48:44;17.00;99.90
13446;DHT22;6795;51.232;3.764;2023-08-21T01:51:50;17.10;99.90
13446;DHT22;6795;51.232;3.764;2023-08-21T01:54:50;17.10;99.90
13446;DHT22;6795;51.232;3.764;2023-08-21T02:09:38;16.40;99.90
13446;DHT22;6795;51.232;3.764;2023-08-21T02:13:16;16.30;99.90
13446;DHT22;6795;51.232;3.764;2023-08-21T02:20:30;16.20;99.90
13446;DHT22;6795;51.232;3.764;2023-08-21T02:24:14;16.20;99.90
13446;DHT22;6795;51.232;3.764;2023-08-21T02:27:23;16.00;99.90
13446;DHT22;6795;51.232;3.764;2023-08-21T02:30:32;15.80;99.90
13446;DHT22;6795;51.232;3.764;2023-08-21T02:33:49;15.70;99.90
13446;DHT22;6795;51.232;3.764;2023-08-21T02:37:10;15.70;99.90
13446;DHT22;6795;51.232;3.764;2023-08-21T02:40:21;15.80;99.90
13446;DHT22;6795;51.232;3.764;2023-08-21T02:43:30;15.70;99.90
13446;DHT22;6795;51.232;3.764;2023-08-21T02:46:49;15.70;99.90
13446;DHT22;6795;51.232;3.764;2023-08-21T02:49:56;15.70;99.90
13446;DHT22;6795;51.232;3.764;2023-08-21T02:53:23;15.60;99.90
13446;DHT22;6795;51.232;3.764;2023-08-21T03:01:15;15.40;99.90
13446;DHT22;6795;51.232;3.764;2023-08-21T03:04:39;15.40;99.90
13446;DHT22;6795;51.232;3.764;2023-08-21T03:07:52;15.40;99.90
13446;DHT22;6795;51.232;3.764;2023-08-21T03:11:01;15.40;99.90
13446;DHT22;6795;51.232;3.764;2023-08-21T03:14:14;15.40;99.90
13446;DHT22;6795;51.232;3.764;2023-08-21T03:20:58;15.20;99.90
13446;DHT22;6795;51.232;3.764;2023-08-21T03:24:17;15.10;99.90
13446;DHT22;6795;51.232;3.764;2023-08-21T03:27:47;15.20;99.90
13446;DHT22;6795;51.232;3.764;2023-08-21T03:31:23;15.20;99.90
13446;DHT22;6795;51.232;3.764;2023-08-21T03:34:34;15.30;99.90
13446;DHT22;6795;51.232;3.764;2023-08-21T03:37:43;15.50;99.90
13446;DHT22;6795;51.232;3.764;2023-08-21T03:40:46;15.60;99.90
13446;DHT22;6795;51.232;3.764;2023-08-21T03:45:48;15.60;99.90
13446;DHT22;6795;51.232;3.764;2023-08-21T03:47:27;15.60;99.90
13446;DHT22;6795;51.232;3.764;2023-08-21T03:51:18;15.60;99.90
13446;DHT22;6795;51.232;3.764;2023-08-21T03:54:58;15.50;99.90
13446;DHT22;6795;51.232;3.764;2023-08-21T03:57:59;15.50;99.90
13446;DHT22;6795;51.232;3.764;2023-08-21T04:01:30;15.50;99.90
13446;DHT22;6795;51.232;3.764;2023-08-21T04:04:36;15.50;99.90
13446;DHT22;6795;51.232;3.764;2023-08-21T04:08:22;15.30;99.90
13446;DHT22;6795;51.232;3.764;2023-08-21T04:11:16;15.20;99.90
13446;DHT22;6795;51.232;3.764;2023-08-21T04:14:49;15.10;99.90
13446;DHT22;6795;51.232;3.764;2023-08-21T04:17:37;14.90;99.90
13446;DHT22;6795;51.232;3.764;2023-08-21T04:20:51;14.80;99.90
13446;DHT22;6795;51.232;3.764;2023-08-21T04:24:55;14.70;99.90
13446;DHT22;6795;51.232;3.764;2023-08-21T04:27:49;14.60;99.90
13446;DHT22;6795;51.232;3.764;2023-08-21T04:35:13;14.40;99.90
13446;DHT22;6795;51.232;3.764;2023-08-21T04:38:17;14.40;99.90
13446;DHT22;6795;51.232;3.764;2023-08-21T04:41:46;14.40;99.90
13446;DHT22;6795;51.232;3.764;2023-08-21T04:45:02;14.50;99.90
13446;DHT22;6795;51.232;3.764;2023-08-21T04:48:37;14.60;99.90
13446;DHT22;6795;51.232;3.764;2023-08-21T04:51:46;14.70;99.90
13446;DHT22;6795;51.232;3.764;2023-08-21T04:55:27;14.70;99.90
13446;DHT22;6795;51.232;3.764;2023-08-21T05:07:18;15.10;99.90
13446;DHT22;6795;51.232;3.764;2023-08-21T05:10:48;15.20;99.90
13446;DHT22;6795;51.232;3.764;2023-08-21T05:14:02;15.30;99.90
13446;DHT22;6795;51.232;3.764;2023-08-21T05:17:04;15.20;99.90
13446;DHT22;6795;51.232;3.764;2023-08-21T05:20:11;15.20;99.90
13446;DHT22;6795;51.232;3.764;2023-08-21T05:23:57;15.10;99.90
13446;DHT22;6795;51.232;3.764;2023-08-21T05:30:53;15.10;99.90
13446;DHT22;6795;51.232;3.764;2023-08-21T05:34:19;15.10;99.90
13446;DHT22;6795;51.232;3.764;2023-08-21T05:37:22;15.40;99.90
13446;DHT22;6795;51.232;3.764;2023-08-21T05:40:39;15.50;99.90
13446;DHT22;6795;51.232;3.764;2023-08-21T05:44:34;15.50;99.90
13446;DHT22;6795;51.232;3.764;2023-08-21T05:47:52;15.60;99.90
13446;DHT22;6795;51.232;3.764;2023-08-21T05:50:54;15.90;99.90
13446;DHT22;6795;51.232;3.764;2023-08-21T05:54:21;16.20;99.90
13446;DHT22;6795;51.232;3.764;2023-08-21T05:57:37;16.60;99.90
13446;DHT22;6795;51.232;3.764;2023-08-21T06:05:07;18.00;99.90
13446;DHT22;6795;51.232;3.764;2023-08-21T06:08:54;18.60;99.90
13446;DHT22;6795;51.232;3.764;2023-08-21T06:12:05;19.00;99.90
13446;DHT22;6795;51.232;3.764;2023-08-21T06:15:50;19.60;99.90
13446;DHT22;6795;51.232;3.764;2023-08-21T06:19:12;20.30;99.90
13446;DHT22;6795;51.232;3.764;2023-08-21T06:22:43;20.80;99.90
13446;DHT22;6795;51.232;3.764;2023-08-21T06:26:06;21.50;99.90
13446;DHT22;6795;51.232;3.764;2023-08-21T06:29:09;22.00;99.90
13446;DHT22;6795;51.232;3.764;2023-08-21T06:35:54;22.40;99.90
13446;DHT22;6795;51.232;3.764;2023-08-21T06:39:02;22.70;99.90
13446;DHT22;6795;51.232;3.764;2023-08-21T06:42:24;22.90;99.90
13446;DHT22;6795;51.232;3.764;2023-08-21T06:45:34;23.10;99.90
13446;DHT22;6795;51.232;3.764;2023-08-21T06:48:59;23.20;99.90
13446;DHT22;6795;51.232;3.764;2023-08-21T06:52:29;23.50;99.90
13446;DHT22;6795;51.232;3.764;2023-08-21T06:55:23;24.00;99.90
13446;DHT22;6795;51.232;3.764;2023-08-21T06:58:56;24.30;99.90
13446;DHT22;6795;51.232;3.764;2023-08-21T07:02:05;24.60;99.90
13446;DHT22;6795;51.232;3.764;2023-08-21T07:06:31;25.00;99.90
13446;DHT22;6795;51.232;3.764;2023-08-21T07:09:35;25.40;99.90
13446;DHT22;6795;51.232;3.764;2023-08-21T07:12:47;25.60;99.90
13446;DHT22;6795;51.232;3.764;2023-08-21T07:16:18;25.80;99.90
13446;DHT22;6795;51.232;3.764;2023-08-21T07:20:04;25.90;99.90
13446;DHT22;6795;51.232;3.764;2023-08-21T07:24:05;26.20;99.90
13446;DHT22;6795;51.232;3.764;2023-08-21T07:27:19;26.10;99.90
13446;DHT22;6795;51.232;3.764;2023-08-21T07:31:09;25.90;99.90
13446;DHT22;6795;51.232;3.764;2023-08-21T07:34:25;26.20;99.90
13446;DHT22;6795;51.232;3.764;2023-08-21T07:37:51;26.30;99.90
13446;DHT22;6795;51.232;3.764;2023-08-21T07:41:46;26.20;99.90
13446;DHT22;6795;51.232;3.764;2023-08-21T07:45:06;26.80;99.90
13446;DHT22;6795;51.232;3.764;2023-08-21T07:48:22;26.40;99.90
13446;DHT22;6795;51.232;3.764;2023-08-21T07:51:33;26.20;99.90
13446;DHT22;6795;51.232;3.764;2023-08-21T07:54:43;26.00;99.90
13446;DHT22;6795;51.232;3.764;2023-08-21T07:58:36;26.60;99.90
13446;DHT22;6795;51.232;3.764;2023-08-21T08:01:42;27.10;99.90
13446;DHT22;6795;51.232;3.764;2023-08-21T08:05:48;27.30;99.90
13446;DHT22;6795;51.232;3.764;2023-08-21T08:08:58;27.80;99.90
13446;DHT22;6795;51.232;3.764;2023-08-21T08:12:57;28.40;99.90
13446;DHT22;6795;51.232;3.764;2023-08-21T08:16:45;26.90;99.90
13446;DHT22;6795;51.232;3.764;2023-08-21T08:19:59;27.30;99.90
13446;DHT22;6795;51.232;3.764;2023-08-21T08:23:42;28.10;99.90
13446;DHT22;6795;51.232;3.764;2023-08-21T08:28:59;28.60;99.90
13446;DHT22;6795;51.232;3.764;2023-08-21T08:30:39;29.10;99.90
13446;DHT22;6795;51.232;3.764;2023-08-21T08:35:08;29.00;99.90
13446;DHT22;6795;51.232;3.764;2023-08-21T08:37:35;28.90;99.90
13446;DHT22;6795;51.232;3.764;2023-08-21T08:41:17;28.80;99.90
13446;DHT22;6795;51.232;3.764;2023-08-21T08:44:43;28.70;99.90
13446;DHT22;6795;51.232;3.764;2023-08-21T08:48:11;28.80;99.90
13446;DHT22;6795;51.232;3.764;2023-08-21T08:51:32;28.80;99.90
13446;DHT22;6795;51.232;3.764;2023-08-21T08:54:51;27.80;99.90
13446;DHT22;6795;51.232;3.764;2023-08-21T08:58:34;28.00;99.90
13446;DHT22;6795;51.232;3.764;2023-08-21T09:02:26;28.20;99.90
13446;DHT22;6795;51.232;3.764;2023-08-21T09:09:54;28.80;99.90
13446;DHT22;6795;51.232;3.764;2023-08-21T09:13:17;29.50;99.90
13446;DHT22;6795;51.232;3.764;2023-08-21T09:16:27;29.80;99.90
13446;DHT22;6795;51.232;3.764;2023-08-21T09:20:09;29.50;99.90
13446;DHT22;6795;51.232;3.764;2023-08-21T09:23:25;29.60;99.90
13446;DHT22;6795;51.232;3.764;2023-08-21T09:27:18;29.70;99.90
13446;DHT22;6795;51.232;3.764;2023-08-21T09:31:00;29.60;99.90
13446;DHT22;6795;51.232;3.764;2023-08-21T09:34:29;29.80;99.90
13446;DHT22;6795;51.232;3.764;2023-08-21T09:38:21;29.90;99.90
13446;DHT22;6795;51.232;3.764;2023-08-21T09:41:30;29.10;99.90
13446;DHT22;6795;51.232;3.764;2023-08-21T09:45:00;28.70;99.90
13446;DHT22;6795;51.232;3.764;2023-08-21T09:48:26;28.70;99.90
13446;DHT22;6795;51.232;3.764;2023-08-21T09:51:26;28.50;99.90
13446;DHT22;6795;51.232;3.764;2023-08-21T09:54:57;27.90;99.90
13446;DHT22;6795;51.232;3.764;2023-08-21T09:58:51;27.70;99.90
13446;DHT22;6795;51.232;3.764;2023-08-21T10:13:56;29.00;99.90
13446;DHT22;6795;51.232;3.764;2023-08-21T10:17:13;29.20;99.90
13446;DHT22;6795;51.232;3.764;2023-08-21T10:24:00;29.80;99.90
13446;DHT22;6795;51.232;3.764;2023-08-21T10:27:38;30.50;99.90
13446;DHT22;6795;51.232;3.764;2023-08-21T10:31:31;30.00;99.90
13446;DHT22;6795;51.232;3.764;2023-08-21T10:34:40;30.30;99.30
13446;DHT22;6795;51.232;3.764;2023-08-21T10:38:15;30.60;98.10
13446;DHT22;6795;51.232;3.764;2023-08-21T10:41:43;30.90;98.00
13446;DHT22;6795;51.232;3.764;2023-08-21T10:45:03;30.60;99.90
13446;DHT22;6795;51.232;3.764;2023-08-21T10:52:54;30.50;99.40
13446;DHT22;6795;51.232;3.764;2023-08-21T10:56:12;29.80;99.10
13446;DHT22;6795;51.232;3.764;2023-08-21T11:00:04;30.10;99.60
13446;DHT22;6795;51.232;3.764;2023-08-21T11:03:14;29.90;98.50
13446;DHT22;6795;51.232;3.764;2023-08-21T11:09:48;29.00;99.10
13446;DHT22;6795;51.232;3.764;2023-08-21T11:13:41;29.00;98.40
13446;DHT22;6795;51.232;3.764;2023-08-21T11:17:36;29.00;97.80
13446;DHT22;6795;51.232;3.764;2023-08-21T11:21:10;29.50;97.90
13446;DHT22;6795;51.232;3.764;2023-08-21T11:24:58;29.00;99.80
13446;DHT22;6795;51.232;3.764;2023-08-21T11:28:09;28.60;98.60
13446;DHT22;6795;51.232;3.764;2023-08-21T11:31:35;28.10;99.90
13446;DHT22;6795;51.232;3.764;2023-08-21T11:34:47;27.40;99.90
13446;DHT22;6795;51.232;3.764;2023-08-21T11:38:03;27.40;99.90
13446;DHT22;6795;51.232;3.764;2023-08-21T11:41:33;27.70;99.40
13446;DHT22;6795;51.232;3.764;2023-08-21T11:45:38;27.30;99.90
13446;DHT22;6795;51.232;3.764;2023-08-21T11:48:57;27.60;99.90
13446;DHT22;6795;51.232;3.764;2023-08-21T11:53:58;28.40;99.90
13446;DHT22;6795;51.232;3.764;2023-08-21T11:55:27;28.40;99.90
13446;DHT22;6795;51.232;3.764;2023-08-21T11:59:07;28.30;99.90
13446;DHT22;6795;51.232;3.764;2023-08-21T12:02:27;27.50;99.90
13446;DHT22;6795;51.232;3.764;2023-08-21T12:06:42;26.60;99.90
13446;DHT22;6795;51.232;3.764;2023-08-21T12:09:27;26.20;99.90
13446;DHT22;6795;51.232;3.764;2023-08-21T12:12:39;26.40;99.90
13446;DHT22;6795;51.232;3.764;2023-08-21T12:15:55;26.50;99.90
13446;DHT22;6795;51.232;3.764;2023-08-21T12:19:19;26.60;99.90
13446;DHT22;6795;51.232;3.764;2023-08-21T12:22:36;27.30;99.90
13446;DHT22;6795;51.232;3.764;2023-08-21T12:25:47;27.70;99.90
13446;DHT22;6795;51.232;3.764;2023-08-21T12:29:23;28.10;99.90
13446;DHT22;6795;51.232;3.764;2023-08-21T12:32:27;28.70;99.90
13446;DHT22;6795;51.232;3.764;2023-08-21T12:36:04;29.00;99.90
13446;DHT22;6795;51.232;3.764;2023-08-21T12:39:32;29.20;99.90
13446;DHT22;6795;51.232;3.764;2023-08-21T12:42:42;29.50;99.90
13446;DHT22;6795;51.232;3.764;2023-08-21T12:46:01;28.80;99.80
13446;DHT22;6795;51.232;3.764;2023-08-21T12:49:18;28.90;99.90
13446;DHT22;6795;51.232;3.764;2023-08-21T12:53:17;28.60;99.30
13446;DHT22;6795;51.232;3.764;2023-08-21T12:56:12;29.00;99.40
13446;DHT22;6795;51.232;3.764;2023-08-21T12:59:42;29.30;99.90
13446;DHT22;6795;51.232;3.764;2023-08-21T13:03:16;29.10;98.00
13446;DHT22;6795;51.232;3.764;2023-08-21T13:06:53;28.60;99.90
13446;DHT22;6795;51.232;3.764;2023-08-21T13:10:42;27.10;99.90
13446;DHT22;6795;51.232;3.764;2023-08-21T13:14:08;27.00;99.90
13446;DHT22;6795;51.232;3.764;2023-08-21T13:17:24;26.50;99.90
13446;DHT22;6795;51.232;3.764;2023-08-21T13:20:41;27.30;99.90
13446;DHT22;6795;51.232;3.764;2023-08-21T13:23:52;28.10;99.90
13446;DHT22;6795;51.232;3.764;2023-08-21T13:27:14;28.60;99.90
13446;DHT22;6795;51.232;3.764;2023-08-21T13:30:08;28.60;99.90
13446;DHT22;6795;51.232;3.764;2023-08-21T13:33:23;27.90;99.90
13446;DHT22;6795;51.232;3.764;2023-08-21T13:36:29;27.60;99.90
13446;DHT22;6795;51.232;3.764;2023-08-21T13:40:05;27.70;99.90
13446;DHT22;6795;51.232;3.764;2023-08-21T13:43:33;27.40;99.90
13446;DHT22;6795;51.232;3.764;2023-08-21T13:47:09;27.20;99.90
13446;DHT22;6795;51.232;3.764;2023-08-21T13:50:52;26.80;99.90
13446;DHT22;6795;51.232;3.764;2023-08-21T13:54:18;26.00;99.90
13446;DHT22;6795;51.232;3.764;2023-08-21T13:58:00;26.40;99.90
13446;DHT22;6795;51.232;3.764;2023-08-21T14:01:37;26.20;99.90
13446;DHT22;6795;51.232;3.764;2023-08-21T14:05:02;26.00;99.90
13446;DHT22;6795;51.232;3.764;2023-08-21T14:08:14;26.20;99.90
13446;DHT22;6795;51.232;3.764;2023-08-21T14:11:50;26.40;99.90
13446;DHT22;6795;51.232;3.764;2023-08-21T14:15:17;26.10;99.90
13446;DHT22;6795;51.232;3.764;2023-08-21T14:18:42;25.90;99.90
13446;DHT22;6795;51.232;3.764;2023-08-21T14:21:49;26.10;99.90
13446;DHT22;6795;51.232;3.764;2023-08-21T14:25:16;26.20;99.90
13446;DHT22;6795;51.232;3.764;2023-08-21T14:28:58;26.40;99.90
13446;DHT22;6795;51.232;3.764;2023-08-21T14:32:25;26.30;99.90
13446;DHT22;6795;51.232;3.764;2023-08-21T14:35:51;25.60;99.90
13446;DHT22;6795;51.232;3.764;2023-08-21T14:39:14;25.40;99.90
13446;DHT22;6795;51.232;3.764;2023-08-21T14:42:31;25.60;99.90
13446;DHT22;6795;51.232;3.764;2023-08-21T14:46:07;25.90;99.90
13446;DHT22;6795;51.232;3.764;2023-08-21T14:49:40;25.70;99.90
13446;DHT22;6795;51.232;3.764;2023-08-21T14:52:59;25.70;99.90
13446;DHT22;6795;51.232;3.764;2023-08-21T14:56:21;25.90;99.90
13446;DHT22;6795;51.232;3.764;2023-08-21T14:59:50;26.10;99.90
13446;DHT22;6795;51.232;3.764;2023-08-21T15:02:46;26.00;99.90
13446;DHT22;6795;51.232;3.764;2023-08-21T15:06:25;26.00;99.90
13446;DHT22;6795;51.232;3.764;2023-08-21T15:09:53;26.40;99.90
13446;DHT22;6795;51.232;3.764;2023-08-21T15:13:31;26.40;99.90
13446;DHT22;6795;51.232;3.764;2023-08-21T15:16:59;26.60;99.90
13446;DHT22;6795;51.232;3.764;2023-08-21T15:20:06;27.00;99.90
13446;DHT22;6795;51.232;3.764;2023-08-21T15:23:17;27.00;99.90
13446;DHT22;6795;51.232;3.764;2023-08-21T15:26:52;26.50;99.90
13446;DHT22;6795;51.232;3.764;2023-08-21T15:34:17;26.40;99.90
13446;DHT22;6795;51.232;3.764;2023-08-21T15:48:44;26.00;99.90
13446;DHT22;6795;51.232;3.764;2023-08-21T15:55:27;25.90;99.90
13446;DHT22;6795;51.232;3.764;2023-08-21T15:58:34;26.10;99.90
13446;DHT22;6795;51.232;3.764;2023-08-21T16:01:44;25.90;99.90
13446;DHT22;6795;51.232;3.764;2023-08-21T16:05:18;25.90;99.90
13446;DHT22;6795;51.232;3.764;2023-08-21T16:08:32;25.60;99.90
13446;DHT22;6795;51.232;3.764;2023-08-21T16:12:21;25.90;99.90
13446;DHT22;6795;51.232;3.764;2023-08-21T16:15:33;26.10;99.90
13446;DHT22;6795;51.232;3.764;2023-08-21T16:18:08;26.10;99.90
13446;DHT22;6795;51.232;3.764;2023-08-21T16:25:19;25.50;99.90
13446;DHT22;6795;51.232;3.764;2023-08-21T16:28:56;25.20;99.90
13446;DHT22;6795;51.232;3.764;2023-08-21T16:32:20;25.40;99.90
13446;DHT22;6795;51.232;3.764;2023-08-21T16:35:36;25.50;99.90
13446;DHT22;6795;51.232;3.764;2023-08-21T16:42:15;25.10;99.90
13446;DHT22;6795;51.232;3.764;2023-08-21T16:45:53;25.10;99.90
13446;DHT22;6795;51.232;3.764;2023-08-21T16:52:25;25.20;99.90
13446;DHT22;6795;51.232;3.764;2023-08-21T16:55:35;25.20;99.90
13446;DHT22;6795;51.232;3.764;2023-08-21T16:58:30;24.80;99.90
13446;DHT22;6795;51.232;3.764;2023-08-21T17:00:58;24.30;99.90
13446;DHT22;6795;51.232;3.764;2023-08-21T17:03:27;23.80;99.90
13446;DHT22;6795;51.232;3.764;2023-08-21T17:05:55;23.60;99.90
13446;DHT22;6795;51.232;3.764;2023-08-21T17:09:17;23.50;99.90
13446;DHT22;6795;51.232;3.764;2023-08-21T17:12:32;23.20;99.90
13446;DHT22;6795;51.232;3.764;2023-08-21T17:15:42;23.00;99.90
13446;DHT22;6795;51.232;3.764;2023-08-21T17:19:17;22.80;99.90
13446;DHT22;6795;51.232;3.764;2023-08-21T17:22:53;22.60;99.90
13446;DHT22;6795;51.232;3.764;2023-08-21T17:26:21;22.50;99.90
13446;DHT22;6795;51.232;3.764;2023-08-21T17:29:48;22.40;99.90
13446;DHT22;6795;51.232;3.764;2023-08-21T17:33:10;22.30;99.90
13446;DHT22;6795;51.232;3.764;2023-08-21T17:36:48;22.20;99.90
13446;DHT22;6795;51.232;3.764;2023-08-21T17:40:02;22.00;99.90
13446;DHT22;6795;51.232;3.764;2023-08-21T17:43:55;21.90;99.90
13446;DHT22;6795;51.232;3.764;2023-08-21T17:47:09;21.80;99.90
13446;DHT22;6795;51.232;3.764;2023-08-21T17:50:55;21.70;99.90
13446;DHT22;6795;51.232;3.764;2023-08-21T17:54:04;21.60;99.90
13446;DHT22;6795;51.232;3.764;2023-08-21T17:57:23;21.50;99.90
13446;DHT22;6795;51.232;3.764;2023-08-21T18:00:21;21.30;99.90
13446;DHT22;6795;51.232;3.764;2023-08-21T18:03:58;21.10;99.90
13446;DHT22;6795;51.232;3.764;2023-08-21T18:07:30;21.00;99.90
13446;DHT22;6795;51.232;3.764;2023-08-21T18:10:46;21.00;99.90
13446;DHT22;6795;51.232;3.764;2023-08-21T18:17:30;20.90;99.90
13446;DHT22;6795;51.232;3.764;2023-08-21T18:21:29;20.90;99.90
13446;DHT22;6795;51.232;3.764;2023-08-21T18:25:05;20.80;99.90
13446;DHT22;6795;51.232;3.764;2023-08-21T18:28:05;20.70;99.90
13446;DHT22;6795;51.232;3.764;2023-08-21T18:31:50;20.60;99.90
13446;DHT22;6795;51.232;3.764;2023-08-21T18:34:33;20.40;99.90
13446;DHT22;6795;51.232;3.764;2023-08-21T18:38:24;20.30;99.90
13446;DHT22;6795;51.232;3.764;2023-08-21T18:41:18;20.20;99.90
13446;DHT22;6795;51.232;3.764;2023-08-21T18:44:26;20.00;99.90
13446;DHT22;6795;51.232;3.764;2023-08-21T18:47:48;19.90;99.90
13446;DHT22;6795;51.232;3.764;2023-08-21T18:51:34;19.80;99.90
13446;DHT22;6795;51.232;3.764;2023-08-21T18:54:34;19.50;99.90
13446;DHT22;6795;51.232;3.764;2023-08-21T18:58:04;19.40;99.90
13446;DHT22;6795;51.232;3.764;2023-08-21T19:01:30;19.40;99.90
13446;DHT22;6795;51.232;3.764;2023-08-21T19:05:11;19.20;99.90
13446;DHT22;6795;51.232;3.764;2023-08-21T19:08:25;19.00;99.90
13446;DHT22;6795;51.232;3.764;2023-08-21T19:11:45;18.90;99.90
13446;DHT22;6795;51.232;3.764;2023-08-21T19:14:15;18.80;99.90
13446;DHT22;6795;51.232;3.764;2023-08-21T19:16:44;18.70;99.90
13446;DHT22;6795;51.232;3.764;2023-08-21T19:19:14;18.60;99.90
13446;DHT22;6795;51.232;3.764;2023-08-21T19:21:42;18.50;99.90
13446;DHT22;6795;51.232;3.764;2023-08-21T19:24:11;18.40;99.90
13446;DHT22;6795;51.232;3.764;2023-08-21T19:26:39;18.30;99.90
13446;DHT22;6795;51.232;3.764;2023-08-21T19:29:08;18.20;99.90
13446;DHT22;6795;51.232;3.764;2023-08-21T19:31:38;18.10;99.90
13446;DHT22;6795;51.232;3.764;2023-08-21T19:34:06;18.00;99.90
13446;DHT22;6795;51.232;3.764;2023-08-21T19:36:35;18.00;99.90
13446;DHT22;6795;51.232;3.764;2023-08-21T19:39:05;18.00;99.90
13446;DHT22;6795;51.232;3.764;2023-08-21T19:41:33;18.00;99.90
13446;DHT22;6795;51.232;3.764;2023-08-21T19:44:02;18.00;99.90
13446;DHT22;6795;51.232;3.764;2023-08-21T19:46:31;18.00;99.90
13446;DHT22;6795;51.232;3.764;2023-08-21T19:49:26;17.90;99.90
13446;DHT22;6795;51.232;3.764;2023-08-21T19:52:19;17.80;99.90
13446;DHT22;6795;51.232;3.764;2023-08-21T19:56:02;17.70;99.90
13446;DHT22;6795;51.232;3.764;2023-08-21T19:59:21;17.60;99.90
13446;DHT22;6795;51.232;3.764;2023-08-21T20:02:33;17.60;99.90
13446;DHT22;6795;51.232;3.764;2023-08-21T20:06:14;17.60;99.90
13446;DHT22;6795;51.232;3.764;2023-08-21T20:09:33;17.40;99.90
13446;DHT22;6795;51.232;3.764;2023-08-21T20:12:56;17.20;99.90
13446;DHT22;6795;51.232;3.764;2023-08-21T20:16:25;17.20;99.90
13446;DHT22;6795;51.232;3.764;2023-08-21T20:21:09;17.20;99.90
13446;DHT22;6795;51.232;3.764;2023-08-21T20:27:18;17.30;99.90
13446;DHT22;6795;51.232;3.764;2023-08-21T20:30:31;17.20;99.90
13446;DHT22;6795;51.232;3.764;2023-08-21T20:33:51;17.10;99.90
13446;DHT22;6795;51.232;3.764;2023-08-21T20:37:09;17.10;99.90
13446;DHT22;6795;51.232;3.764;2023-08-21T20:40:27;17.10;99.90
13446;DHT22;6795;51.232;3.764;2023-08-21T20:43:41;17.10;99.90
13446;DHT22;6795;51.232;3.764;2023-08-21T20:47:23;17.10;99.90
13446;DHT22;6795;51.232;3.764;2023-08-21T20:50:30;17.00;99.90
13446;DHT22;6795;51.232;3.764;2023-08-21T20:53:34;17.00;99.90
13446;DHT22;6795;51.232;3.764;2023-08-21T20:56:55;17.20;99.90
13446;DHT22;6795;51.232;3.764;2023-08-21T21:01:31;17.40;99.90
13446;DHT22;6795;51.232;3.764;2023-08-21T21:03:40;17.50;99.90
13446;DHT22;6795;51.232;3.764;2023-08-21T21:07:14;17.50;99.90
13446;DHT22;6795;51.232;3.764;2023-08-21T21:11:00;17.40;99.90
13446;DHT22;6795;51.232;3.764;2023-08-21T21:18:12;17.20;99.90
13446;DHT22;6795;51.232;3.764;2023-08-21T21:21:08;17.20;99.90
13446;DHT22;6795;51.232;3.764;2023-08-21T21:24:30;17.20;99.90
13446;DHT22;6795;51.232;3.764;2023-08-21T21:27:47;17.30;99.90
13446;DHT22;6795;51.232;3.764;2023-08-21T21:31:19;17.30;99.90
13446;DHT22;6795;51.232;3.764;2023-08-21T21:38:20;17.40;99.90
13446;DHT22;6795;51.232;3.764;2023-08-21T21:41:45;17.40;99.90
13446;DHT22;6795;51.232;3.764;2023-08-21T21:44:55;17.30;99.90
13446;DHT22;6795;51.232;3.764;2023-08-21T21:48:22;17.30;99.90
13446;DHT22;6795;51.232;3.764;2023-08-21T21:51:36;17.30;99.90
13446;DHT22;6795;51.232;3.764;2023-08-21T21:54:55;17.30;99.90
13446;DHT22;6795;51.232;3.764;2023-08-21T21:58:25;17.40;99.90
13446;DHT22;6795;51.232;3.764;2023-08-21T22:01:22;17.40;99.90
13446;DHT22;6795;51.232;3.764;2023-08-21T22:04:38;17.30;99.90
13446;DHT22;6795;51.232;3.764;2023-08-21T22:16:21;17.20;99.90
13446;DHT22;6795;51.232;3.764;2023-08-21T22:19:10;17.40;99.90
13446;DHT22;6795;51.232;3.764;2023-08-21T22:22:50;17.40;99.90
13446;DHT22;6795;51.232;3.764;2023-08-21T22:25:54;17.50;99.90
13446;DHT22;6795;51.232;3.764;2023-08-21T22:29:15;17.40;99.90
13446;DHT22;6795;51.232;3.764;2023-08-21T22:33:06;17.30;99.90
13446;DHT22;6795;51.232;3.764;2023-08-21T22:36:40;17.20;99.90
13446;DHT22;6795;51.232;3.764;2023-08-21T22:40:18;17.20;99.90
13446;DHT22;6795;51.232;3.764;2023-08-21T22:43:42;17.10;99.90
13446;DHT22;6795;51.232;3.764;2023-08-21T22:46:55;17.20;99.90
13446;DHT22;6795;51.232;3.764;2023-08-21T22:50:02;17.20;99.90
13446;DHT22;6795;51.232;3.764;2023-08-21T22:53:19;17.10;99.90
13446;DHT22;6795;51.232;3.764;2023-08-21T22:56:58;17.10;99.90
13446;DHT22;6795;51.232;3.764;2023-08-21T23:00:14;17.10;99.90
13446;DHT22;6795;51.232;3.764;2023-08-21T23:03:44;17.10;99.90
13446;DHT22;6795;51.232;3.764;2023-08-21T23:07:15;17.10;99.90
13446;DHT22;6795;51.232;3.764;2023-08-21T23:10:23;17.10;99.90
13446;DHT22;6795;51.232;3.764;2023-08-21T23:13:39;17.00;99.90
13446;DHT22;6795;51.232;3.764;2023-08-21T23:16:52;17.10;99.90
13446;DHT22;6795;51.232;3.764;2023-08-21T23:20:25;17.20;99.90
13446;DHT22;6795;51.232;3.764;2023-08-21T23:35:36;17.10;99.90
13446;DHT22;6795;51.232;3.764;2023-08-21T23:38:43;17.10;99.90
13446;DHT22;6795;51.232;3.764;2023-08-21T23:42:18;17.10;99.90
13446;DHT22;6795;51.232;3.764;2023-08-21T23:45:42;17.20;99.90
13446;DHT22;6795;51.232;3.764;2023-08-21T23:49:08;17.20;99.90
13446;DHT22;6795;51.232;3.764;2023-08-21T23:52:44;17.20;99.90
13446;DHT22;6795;51.232;3.764;2023-08-21T23:55:54;17.20;99.90
13446;DHT22;6795;51.232;3.764;2023-08-21T23:59:10;17.10;99.90
